Terminal Aerodrome Forecast
Issued by NWS Cleveland, OH

Home | Current Version | Previous Version | Graphics & Text | Print | Product List | Glossary On
Versions: 1 2 3 4 5 6 7 8 9 10 11 12 13 14 15 16 17 18 19
000
FTUS41 KCLE 310543
TAFTOL
TAF
KTOL 310543Z 3106/0106 04010KT 6SM -SHRA BR BKN007 OVC013
     FM310900 03014KT 5SM -SHRA BR OVC005
     FM311400 04017G25KT 2SM RA BR OVC003
     FM312100 05015G25KT 6SM -SHRA BR OVC008
     FM010200 02014KT P6SM OVC005=

USA.gov is the U.S. government's official web portal to all federal, state and local government web resources and services.